sensor_id;sensor_type;location;lat;lon;timestamp;temperature;humidity
75296;DHT22;64623;44.738;37.804;2023-06-10T00:00:43;6.86;118.99
75296;DHT22;64623;44.738;37.804;2023-06-10T00:01:47;6.89;118.99
75296;DHT22;64623;44.738;37.804;2023-06-10T00:02:50;6.88;118.99
75296;DHT22;64623;44.738;37.804;2023-06-10T00:03:53;6.86;118.99
75296;DHT22;64623;44.738;37.804;2023-06-10T00:04:56;6.80;118.99
75296;DHT22;64623;44.738;37.804;2023-06-10T00:06:00;6.87;118.99
75296;DHT22;64623;44.738;37.804;2023-06-10T00:07:04;6.87;118.99
75296;DHT22;64623;44.738;37.804;2023-06-10T00:08:11;6.88;118.99
75296;DHT22;64623;44.738;37.804;2023-06-10T00:09:14;6.75;118.99
75296;DHT22;64623;44.738;37.804;2023-06-10T00:10:18;6.69;118.99
75296;DHT22;64623;44.738;37.804;2023-06-10T00:11:21;6.73;118.99
75296;DHT22;64623;44.738;37.804;2023-06-10T00:12:24;6.66;118.99
75296;DHT22;64623;44.738;37.804;2023-06-10T00:13:27;6.59;118.99
75296;DHT22;64623;44.738;37.804;2023-06-10T00:14:31;6.52;118.99
75296;DHT22;64623;44.738;37.804;2023-06-10T00:15:34;6.51;118.99
75296;DHT22;64623;44.738;37.804;2023-06-10T00:16:38;6.55;118.99
75296;DHT22;64623;44.738;37.804;2023-06-10T00:17:41;6.54;118.99
75296;DHT22;64623;44.738;37.804;2023-06-10T00:18:45;6.53;118.99
75296;DHT22;64623;44.738;37.804;2023-06-10T00:19:49;6.51;118.99
75296;DHT22;64623;44.738;37.804;2023-06-10T00:20:53;6.46;118.99
75296;DHT22;64623;44.738;37.804;2023-06-10T00:21:57;6.33;118.99
75296;DHT22;64623;44.738;37.804;2023-06-10T00:23:01;6.54;118.99
75296;DHT22;64623;44.738;37.804;2023-06-10T00:24:05;7.11;118.99
75296;DHT22;64623;44.738;37.804;2023-06-10T00:25:09;7.67;118.99
75296;DHT22;64623;44.738;37.804;2023-06-10T00:26:13;7.63;118.99
75296;DHT22;64623;44.738;37.804;2023-06-10T00:27:18;7.33;118.99
75296;DHT22;64623;44.738;37.804;2023-06-10T00:28:21;7.25;118.99
75296;DHT22;64623;44.738;37.804;2023-06-10T00:29:24;6.67;118.99
75296;DHT22;64623;44.738;37.804;2023-06-10T00:30:27;6.57;118.99
75296;DHT22;64623;44.738;37.804;2023-06-10T00:31:31;6.56;118.99
75296;DHT22;64623;44.738;37.804;2023-06-10T00:32:35;6.59;118.99
75296;DHT22;64623;44.738;37.804;2023-06-10T00:33:38;6.51;118.99
75296;DHT22;64623;44.738;37.804;2023-06-10T00:34:41;6.59;118.99
75296;DHT22;64623;44.738;37.804;2023-06-10T00:35:44;6.59;118.99
75296;DHT22;64623;44.738;37.804;2023-06-10T00:36:47;6.78;118.99
75296;DHT22;64623;44.738;37.804;2023-06-10T00:37:51;7.10;118.99
75296;DHT22;64623;44.738;37.804;2023-06-10T00:38:55;6.93;118.99
75296;DHT22;64623;44.738;37.804;2023-06-10T00:39:58;6.78;118.99
75296;DHT22;64623;44.738;37.804;2023-06-10T00:41:01;6.80;118.99
75296;DHT22;64623;44.738;37.804;2023-06-10T00:42:04;6.76;118.99
75296;DHT22;64623;44.738;37.804;2023-06-10T00:43:09;6.83;118.99
75296;DHT22;64623;44.738;37.804;2023-06-10T00:44:12;6.78;118.99
75296;DHT22;64623;44.738;37.804;2023-06-10T00:45:16;6.73;118.99
75296;DHT22;64623;44.738;37.804;2023-06-10T00:46:21;6.66;118.99
75296;DHT22;64623;44.738;37.804;2023-06-10T00:47:25;6.61;118.99
75296;DHT22;64623;44.738;37.804;2023-06-10T00:48:28;6.43;118.99
75296;DHT22;64623;44.738;37.804;2023-06-10T00:49:32;6.50;118.99
75296;DHT22;64623;44.738;37.804;2023-06-10T00:50:36;6.42;118.99
75296;DHT22;64623;44.738;37.804;2023-06-10T00:51:42;6.36;118.99
75296;DHT22;64623;44.738;37.804;2023-06-10T00:52:45;6.28;118.99
75296;DHT22;64623;44.738;37.804;2023-06-10T00:53:52;6.54;118.99
75296;DHT22;64623;44.738;37.804;2023-06-10T00:54:55;6.61;118.99
75296;DHT22;64623;44.738;37.804;2023-06-10T00:55:58;6.33;118.99
75296;DHT22;64623;44.738;37.804;2023-06-10T00:57:04;6.10;118.99
75296;DHT22;64623;44.738;37.804;2023-06-10T00:58:10;6.22;118.99
75296;DHT22;64623;44.738;37.804;2023-06-10T00:59:13;6.08;118.99
75296;DHT22;64623;44.738;37.804;2023-06-10T01:00:18;5.91;118.99
75296;DHT22;64623;44.738;37.804;2023-06-10T01:01:21;5.82;118.99
75296;DHT22;64623;44.738;37.804;2023-06-10T01:02:25;5.72;118.99
75296;DHT22;64623;44.738;37.804;2023-06-10T01:03:28;5.76;118.99
75296;DHT22;64623;44.738;37.804;2023-06-10T01:04:31;5.82;118.99
75296;DHT22;64623;44.738;37.804;2023-06-10T01:05:35;6.02;118.99
75296;DHT22;64623;44.738;37.804;2023-06-10T01:08:01;5.79;118.99
75296;DHT22;64623;44.738;37.804;2023-06-10T01:09:18;5.72;118.99
75296;DHT22;64623;44.738;37.804;2023-06-10T01:12:23;5.84;118.99
75296;DHT22;64623;44.738;37.804;2023-06-10T01:13:30;5.76;118.99
75296;DHT22;64623;44.738;37.804;2023-06-10T01:14:35;5.89;118.99
75296;DHT22;64623;44.738;37.804;2023-06-10T01:15:39;5.82;118.99
75296;DHT22;64623;44.738;37.804;2023-06-10T01:16:42;6.00;118.99
75296;DHT22;64623;44.738;37.804;2023-06-10T01:18:05;6.19;118.99
75296;DHT22;64623;44.738;37.804;2023-06-10T01:19:11;5.99;118.99
75296;DHT22;64623;44.738;37.804;2023-06-10T01:20:16;5.83;118.99
75296;DHT22;64623;44.738;37.804;2023-06-10T01:21:21;6.00;118.99
75296;DHT22;64623;44.738;37.804;2023-06-10T01:22:27;5.94;118.99
75296;DHT22;64623;44.738;37.804;2023-06-10T01:23:39;5.94;118.99
75296;DHT22;64623;44.738;37.804;2023-06-10T01:24:42;5.95;118.99
75296;DHT22;64623;44.738;37.804;2023-06-10T01:25:50;6.12;118.99
75296;DHT22;64623;44.738;37.804;2023-06-10T01:27:00;6.27;118.99
75296;DHT22;64623;44.738;37.804;2023-06-10T01:28:40;6.17;118.99
75296;DHT22;64623;44.738;37.804;2023-06-10T01:29:51;6.21;118.99
75296;DHT22;64623;44.738;37.804;2023-06-10T01:31:13;6.66;118.99
75296;DHT22;64623;44.738;37.804;2023-06-10T01:32:21;6.08;118.99
75296;DHT22;64623;44.738;37.804;2023-06-10T01:33:31;5.76;118.99
75296;DHT22;64623;44.738;37.804;2023-06-10T01:34:37;5.79;118.99
75296;DHT22;64623;44.738;37.804;2023-06-10T01:35:43;5.80;118.99
75296;DHT22;64623;44.738;37.804;2023-06-10T01:36:48;5.74;118.99
75296;DHT22;64623;44.738;37.804;2023-06-10T01:37:54;5.79;118.99
75296;DHT22;64623;44.738;37.804;2023-06-10T01:39:01;5.82;118.99
75296;DHT22;64623;44.738;37.804;2023-06-10T01:40:05;5.92;118.99
75296;DHT22;64623;44.738;37.804;2023-06-10T01:41:12;5.86;118.99
75296;DHT22;64623;44.738;37.804;2023-06-10T01:42:15;5.91;118.99
75296;DHT22;64623;44.738;37.804;2023-06-10T01:43:20;5.83;118.99
75296;DHT22;64623;44.738;37.804;2023-06-10T01:44:24;5.87;118.99
75296;DHT22;64623;44.738;37.804;2023-06-10T01:45:27;5.83;118.99
75296;DHT22;64623;44.738;37.804;2023-06-10T01:46:30;5.84;118.99
75296;DHT22;64623;44.738;37.804;2023-06-10T01:47:33;5.77;118.99
75296;DHT22;64623;44.738;37.804;2023-06-10T01:48:40;5.78;118.99
75296;DHT22;64623;44.738;37.804;2023-06-10T01:49:44;5.70;118.99
75296;DHT22;64623;44.738;37.804;2023-06-10T01:50:47;5.76;118.99
75296;DHT22;64623;44.738;37.804;2023-06-10T01:51:50;5.71;118.99
75296;DHT22;64623;44.738;37.804;2023-06-10T01:52:53;5.71;118.99
75296;DHT22;64623;44.738;37.804;2023-06-10T01:53:56;5.74;118.99
75296;DHT22;64623;44.738;37.804;2023-06-10T01:54:59;5.72;118.99
75296;DHT22;64623;44.738;37.804;2023-06-10T01:56:02;5.59;118.99
75296;DHT22;64623;44.738;37.804;2023-06-10T01:57:06;5.69;118.99
75296;DHT22;64623;44.738;37.804;2023-06-10T01:58:09;5.70;118.99
75296;DHT22;64623;44.738;37.804;2023-06-10T01:59:12;5.64;118.99
75296;DHT22;64623;44.738;37.804;2023-06-10T02:00:16;5.70;118.99
75296;DHT22;64623;44.738;37.804;2023-06-10T02:01:20;5.64;118.99
75296;DHT22;64623;44.738;37.804;2023-06-10T02:02:23;5.51;118.99
75296;DHT22;64623;44.738;37.804;2023-06-10T02:03:27;5.76;118.99
75296;DHT22;64623;44.738;37.804;2023-06-10T02:04:30;5.98;118.99
75296;DHT22;64623;44.738;37.804;2023-06-10T02:05:35;5.98;118.99
75296;DHT22;64623;44.738;37.804;2023-06-10T02:06:38;5.93;118.99
75296;DHT22;64623;44.738;37.804;2023-06-10T02:07:42;5.98;118.99
75296;DHT22;64623;44.738;37.804;2023-06-10T02:08:45;5.85;118.99
75296;DHT22;64623;44.738;37.804;2023-06-10T02:09:48;5.84;118.99
75296;DHT22;64623;44.738;37.804;2023-06-10T02:10:51;5.83;118.99
75296;DHT22;64623;44.738;37.804;2023-06-10T02:11:54;5.87;118.99
75296;DHT22;64623;44.738;37.804;2023-06-10T02:12:57;5.90;118.99
75296;DHT22;64623;44.738;37.804;2023-06-10T02:14:00;5.90;118.99
75296;DHT22;64623;44.738;37.804;2023-06-10T02:15:04;5.85;118.99
75296;DHT22;64623;44.738;37.804;2023-06-10T02:16:07;5.91;118.99
75296;DHT22;64623;44.738;37.804;2023-06-10T02:17:12;5.97;118.99
75296;DHT22;64623;44.738;37.804;2023-06-10T02:18:37;6.02;118.99
75296;DHT22;64623;44.738;37.804;2023-06-10T02:19:43;6.02;118.99
75296;DHT22;64623;44.738;37.804;2023-06-10T02:20:46;6.04;118.99
75296;DHT22;64623;44.738;37.804;2023-06-10T02:21:49;6.04;118.99
75296;DHT22;64623;44.738;37.804;2023-06-10T02:22:53;6.07;118.99
75296;DHT22;64623;44.738;37.804;2023-06-10T02:23:56;6.17;118.99
75296;DHT22;64623;44.738;37.804;2023-06-10T02:24:59;6.08;118.99
75296;DHT22;64623;44.738;37.804;2023-06-10T02:26:03;6.09;118.99
75296;DHT22;64623;44.738;37.804;2023-06-10T02:27:07;5.99;118.99
75296;DHT22;64623;44.738;37.804;2023-06-10T02:28:10;5.93;118.99
75296;DHT22;64623;44.738;37.804;2023-06-10T02:29:13;6.02;118.99
75296;DHT22;64623;44.738;37.804;2023-06-10T02:30:16;5.98;118.99
75296;DHT22;64623;44.738;37.804;2023-06-10T02:31:19;6.02;118.99
75296;DHT22;64623;44.738;37.804;2023-06-10T02:32:23;6.00;118.99
75296;DHT22;64623;44.738;37.804;2023-06-10T02:33:27;6.05;118.99
75296;DHT22;64623;44.738;37.804;2023-06-10T02:34:30;6.15;118.99
75296;DHT22;64623;44.738;37.804;2023-06-10T02:35:35;6.16;118.99
75296;DHT22;64623;44.738;37.804;2023-06-10T02:36:39;6.10;118.99
75296;DHT22;64623;44.738;37.804;2023-06-10T02:37:44;6.01;118.99
75296;DHT22;64623;44.738;37.804;2023-06-10T02:38:47;6.05;118.99
75296;DHT22;64623;44.738;37.804;2023-06-10T02:39:50;6.13;118.99
75296;DHT22;64623;44.738;37.804;2023-06-10T02:40:54;6.08;118.99
75296;DHT22;64623;44.738;37.804;2023-06-10T02:41:58;6.16;118.99
75296;DHT22;64623;44.738;37.804;2023-06-10T02:43:01;6.06;118.99
75296;DHT22;64623;44.738;37.804;2023-06-10T02:44:04;6.09;118.99
75296;DHT22;64623;44.738;37.804;2023-06-10T02:45:08;6.23;118.99
75296;DHT22;64623;44.738;37.804;2023-06-10T02:46:17;6.21;118.99
75296;DHT22;64623;44.738;37.804;2023-06-10T02:47:21;6.30;118.99
75296;DHT22;64623;44.738;37.804;2023-06-10T02:48:24;6.29;118.99
75296;DHT22;64623;44.738;37.804;2023-06-10T02:49:27;6.25;118.99
75296;DHT22;64623;44.738;37.804;2023-06-10T02:50:31;6.09;118.99
75296;DHT22;64623;44.738;37.804;2023-06-10T02:51:50;6.02;118.99
75296;DHT22;64623;44.738;37.804;2023-06-10T02:52:56;6.17;118.99
75296;DHT22;64623;44.738;37.804;2023-06-10T02:54:00;6.11;118.99
75296;DHT22;64623;44.738;37.804;2023-06-10T02:55:04;6.12;118.99
75296;DHT22;64623;44.738;37.804;2023-06-10T02:56:08;6.23;118.99
75296;DHT22;64623;44.738;37.804;2023-06-10T02:57:11;6.08;118.99
75296;DHT22;64623;44.738;37.804;2023-06-10T02:58:14;6.10;118.99
75296;DHT22;64623;44.738;37.804;2023-06-10T02:59:18;6.12;118.99
75296;DHT22;64623;44.738;37.804;2023-06-10T03:00:22;6.11;118.99
75296;DHT22;64623;44.738;37.804;2023-06-10T03:01:25;6.17;118.99
75296;DHT22;64623;44.738;37.804;2023-06-10T03:02:39;6.13;118.99
75296;DHT22;64623;44.738;37.804;2023-06-10T03:03:45;6.27;118.99
75296;DHT22;64623;44.738;37.804;2023-06-10T03:04:51;6.21;118.99
75296;DHT22;64623;44.738;37.804;2023-06-10T03:05:56;6.23;118.99
75296;DHT22;64623;44.738;37.804;2023-06-10T03:07:00;6.27;118.99
75296;DHT22;64623;44.738;37.804;2023-06-10T03:08:09;6.33;118.99
75296;DHT22;64623;44.738;37.804;2023-06-10T03:09:19;6.33;118.99
75296;DHT22;64623;44.738;37.804;2023-06-10T03:10:25;6.38;118.99
75296;DHT22;64623;44.738;37.804;2023-06-10T03:11:30;6.35;118.99
75296;DHT22;64623;44.738;37.804;2023-06-10T03:12:33;6.38;118.99
75296;DHT22;64623;44.738;37.804;2023-06-10T03:13:36;6.38;118.99
75296;DHT22;64623;44.738;37.804;2023-06-10T03:14:39;6.41;118.99
75296;DHT22;64623;44.738;37.804;2023-06-10T03:15:42;6.54;118.99
75296;DHT22;64623;44.738;37.804;2023-06-10T03:16:51;6.54;118.99
75296;DHT22;64623;44.738;37.804;2023-06-10T03:17:55;6.52;118.99
75296;DHT22;64623;44.738;37.804;2023-06-10T03:18:58;6.51;118.99
75296;DHT22;64623;44.738;37.804;2023-06-10T03:20:02;6.61;118.99
75296;DHT22;64623;44.738;37.804;2023-06-10T03:21:09;6.73;118.99
75296;DHT22;64623;44.738;37.804;2023-06-10T03:22:15;6.59;118.99
75296;DHT22;64623;44.738;37.804;2023-06-10T03:23:35;6.56;118.99
75296;DHT22;64623;44.738;37.804;2023-06-10T03:24:39;6.78;118.99
75296;DHT22;64623;44.738;37.804;2023-06-10T03:25:45;6.53;118.99
75296;DHT22;64623;44.738;37.804;2023-06-10T03:26:51;6.38;118.99
75296;DHT22;64623;44.738;37.804;2023-06-10T03:27:54;6.58;118.99
75296;DHT22;64623;44.738;37.804;2023-06-10T03:28:57;6.65;118.99
75296;DHT22;64623;44.738;37.804;2023-06-10T03:30:00;6.81;118.99
75296;DHT22;64623;44.738;37.804;2023-06-10T03:31:06;6.60;118.99
75296;DHT22;64623;44.738;37.804;2023-06-10T03:32:09;6.57;118.99
75296;DHT22;64623;44.738;37.804;2023-06-10T03:33:14;6.43;118.99
75296;DHT22;64623;44.738;37.804;2023-06-10T03:34:19;6.54;118.99
75296;DHT22;64623;44.738;37.804;2023-06-10T03:35:22;6.60;118.99
75296;DHT22;64623;44.738;37.804;2023-06-10T03:36:29;6.58;118.99
75296;DHT22;64623;44.738;37.804;2023-06-10T03:37:33;6.55;118.99
75296;DHT22;64623;44.738;37.804;2023-06-10T03:38:36;6.54;118.99
75296;DHT22;64623;44.738;37.804;2023-06-10T03:39:40;6.67;118.99
75296;DHT22;64623;44.738;37.804;2023-06-10T03:40:44;6.85;118.99
75296;DHT22;64623;44.738;37.804;2023-06-10T03:41:47;6.71;118.99
75296;DHT22;64623;44.738;37.804;2023-06-10T03:42:50;6.73;118.99
75296;DHT22;64623;44.738;37.804;2023-06-10T03:43:54;6.61;118.99
75296;DHT22;64623;44.738;37.804;2023-06-10T03:44:57;6.74;118.99
75296;DHT22;64623;44.738;37.804;2023-06-10T03:46:30;6.68;118.99
75296;DHT22;64623;44.738;37.804;2023-06-10T03:47:34;6.76;118.99
75296;DHT22;64623;44.738;37.804;2023-06-10T03:48:41;6.75;118.99
75296;DHT22;64623;44.738;37.804;2023-06-10T03:49:45;6.67;118.99
75296;DHT22;64623;44.738;37.804;2023-06-10T03:50:48;6.95;118.99
75296;DHT22;64623;44.738;37.804;2023-06-10T03:51:55;6.71;118.99
75296;DHT22;64623;44.738;37.804;2023-06-10T03:52:58;6.91;118.99
75296;DHT22;64623;44.738;37.804;2023-06-10T03:54:02;7.13;118.99
75296;DHT22;64623;44.738;37.804;2023-06-10T03:55:06;7.08;118.99
75296;DHT22;64623;44.738;37.804;2023-06-10T03:56:09;7.18;118.99
75296;DHT22;64623;44.738;37.804;2023-06-10T03:57:13;7.30;118.99
75296;DHT22;64623;44.738;37.804;2023-06-10T03:58:16;7.12;118.99
75296;DHT22;64623;44.738;37.804;2023-06-10T03:59:21;7.29;118.99
75296;DHT22;64623;44.738;37.804;2023-06-10T04:00:24;7.34;118.99
75296;DHT22;64623;44.738;37.804;2023-06-10T04:01:27;7.37;118.99
75296;DHT22;64623;44.738;37.804;2023-06-10T04:02:30;7.35;118.99
75296;DHT22;64623;44.738;37.804;2023-06-10T04:03:35;7.39;118.99
75296;DHT22;64623;44.738;37.804;2023-06-10T04:04:39;7.24;118.99
75296;DHT22;64623;44.738;37.804;2023-06-10T04:05:42;7.33;118.99
75296;DHT22;64623;44.738;37.804;2023-06-10T04:06:45;7.29;118.99
75296;DHT22;64623;44.738;37.804;2023-06-10T04:07:50;7.29;118.99
75296;DHT22;64623;44.738;37.804;2023-06-10T04:08:56;7.12;118.99
75296;DHT22;64623;44.738;37.804;2023-06-10T04:10:02;7.15;118.99
75296;DHT22;64623;44.738;37.804;2023-06-10T04:11:05;7.26;118.99
75296;DHT22;64623;44.738;37.804;2023-06-10T04:12:10;7.32;118.99
75296;DHT22;64623;44.738;37.804;2023-06-10T04:13:13;7.37;118.99
75296;DHT22;64623;44.738;37.804;2023-06-10T04:14:26;7.19;118.99
75296;DHT22;64623;44.738;37.804;2023-06-10T04:15:29;7.22;118.99
75296;DHT22;64623;44.738;37.804;2023-06-10T04:16:39;7.17;118.99
75296;DHT22;64623;44.738;37.804;2023-06-10T04:17:43;7.31;118.99
75296;DHT22;64623;44.738;37.804;2023-06-10T04:18:47;7.32;118.99
75296;DHT22;64623;44.738;37.804;2023-06-10T04:19:52;7.30;118.99
75296;DHT22;64623;44.738;37.804;2023-06-10T04:20:57;7.48;118.99
75296;DHT22;64623;44.738;37.804;2023-06-10T04:22:01;7.43;118.99
75296;DHT22;64623;44.738;37.804;2023-06-10T04:23:09;7.46;118.99
75296;DHT22;64623;44.738;37.804;2023-06-10T04:24:15;7.67;118.99
75296;DHT22;64623;44.738;37.804;2023-06-10T04:25:19;7.74;118.99
75296;DHT22;64623;44.738;37.804;2023-06-10T04:26:24;7.62;118.99
75296;DHT22;64623;44.738;37.804;2023-06-10T04:27:29;7.85;118.99
75296;DHT22;64623;44.738;37.804;2023-06-10T04:28:33;7.85;118.99
75296;DHT22;64623;44.738;37.804;2023-06-10T04:29:36;7.88;118.99
75296;DHT22;64623;44.738;37.804;2023-06-10T04:30:39;7.72;118.99
75296;DHT22;64623;44.738;37.804;2023-06-10T04:31:48;7.91;118.99
75296;DHT22;64623;44.738;37.804;2023-06-10T04:32:52;7.72;118.99
75296;DHT22;64623;44.738;37.804;2023-06-10T04:33:55;7.86;118.99
75296;DHT22;64623;44.738;37.804;2023-06-10T04:34:59;7.85;118.99
75296;DHT22;64623;44.738;37.804;2023-06-10T04:36:04;7.91;118.99
75296;DHT22;64623;44.738;37.804;2023-06-10T04:37:08;7.82;118.99
75296;DHT22;64623;44.738;37.804;2023-06-10T04:38:11;7.90;118.99
75296;DHT22;64623;44.738;37.804;2023-06-10T04:39:15;7.78;118.99
75296;DHT22;64623;44.738;37.804;2023-06-10T04:40:20;7.83;118.99
75296;DHT22;64623;44.738;37.804;2023-06-10T04:41:23;7.79;118.99
75296;DHT22;64623;44.738;37.804;2023-06-10T04:42:26;7.86;118.99
75296;DHT22;64623;44.738;37.804;2023-06-10T04:43:29;8.23;118.99
75296;DHT22;64623;44.738;37.804;2023-06-10T04:44:34;8.15;118.99
75296;DHT22;64623;44.738;37.804;2023-06-10T04:45:38;8.20;118.99
75296;DHT22;64623;44.738;37.804;2023-06-10T04:46:42;8.37;118.99
75296;DHT22;64623;44.738;37.804;2023-06-10T04:47:45;8.52;118.99
75296;DHT22;64623;44.738;37.804;2023-06-10T04:48:50;8.49;118.99
75296;DHT22;64623;44.738;37.804;2023-06-10T04:49:54;8.47;118.99
75296;DHT22;64623;44.738;37.804;2023-06-10T04:50:59;8.55;118.99
75296;DHT22;64623;44.738;37.804;2023-06-10T04:52:03;8.53;118.99
75296;DHT22;64623;44.738;37.804;2023-06-10T04:53:11;8.52;118.99
75296;DHT22;64623;44.738;37.804;2023-06-10T04:54:18;8.53;118.99
75296;DHT22;64623;44.738;37.804;2023-06-10T04:55:21;8.56;118.99
75296;DHT22;64623;44.738;37.804;2023-06-10T04:56:49;8.57;118.99
75296;DHT22;64623;44.738;37.804;2023-06-10T04:57:52;8.57;118.99
75296;DHT22;64623;44.738;37.804;2023-06-10T04:58:56;8.60;118.99
75296;DHT22;64623;44.738;37.804;2023-06-10T04:59:59;8.64;118.99
75296;DHT22;64623;44.738;37.804;2023-06-10T05:01:04;8.65;118.99
75296;DHT22;64623;44.738;37.804;2023-06-10T05:02:07;8.63;118.99
75296;DHT22;64623;44.738;37.804;2023-06-10T05:03:11;8.57;118.99
75296;DHT22;64623;44.738;37.804;2023-06-10T05:04:14;8.52;118.99
75296;DHT22;64623;44.738;37.804;2023-06-10T05:05:17;8.46;118.99
75296;DHT22;64623;44.738;37.804;2023-06-10T05:06:21;8.33;118.99
75296;DHT22;64623;44.738;37.804;2023-06-10T05:07:24;8.27;118.99
75296;DHT22;64623;44.738;37.804;2023-06-10T05:08:27;8.15;118.99
75296;DHT22;64623;44.738;37.804;2023-06-10T05:09:54;8.30;118.99
75296;DHT22;64623;44.738;37.804;2023-06-10T05:10:58;8.01;118.99
75296;DHT22;64623;44.738;37.804;2023-06-10T05:12:01;8.20;118.99
75296;DHT22;64623;44.738;37.804;2023-06-10T05:13:05;8.52;118.99
75296;DHT22;64623;44.738;37.804;2023-06-10T05:14:08;8.62;118.99
75296;DHT22;64623;44.738;37.804;2023-06-10T05:15:11;8.76;118.99
75296;DHT22;64623;44.738;37.804;2023-06-10T05:16:15;8.79;118.99
75296;DHT22;64623;44.738;37.804;2023-06-10T05:17:18;8.91;118.99
75296;DHT22;64623;44.738;37.804;2023-06-10T05:18:22;8.93;118.99
75296;DHT22;64623;44.738;37.804;2023-06-10T05:19:25;9.23;118.99
75296;DHT22;64623;44.738;37.804;2023-06-10T05:20:28;9.23;118.99
75296;DHT22;64623;44.738;37.804;2023-06-10T05:21:31;9.26;118.99
75296;DHT22;64623;44.738;37.804;2023-06-10T05:22:34;9.17;118.99
75296;DHT22;64623;44.738;37.804;2023-06-10T05:23:37;9.36;118.99
75296;DHT22;64623;44.738;37.804;2023-06-10T05:24:40;9.59;118.99
75296;DHT22;64623;44.738;37.804;2023-06-10T05:25:44;9.27;118.99
75296;DHT22;64623;44.738;37.804;2023-06-10T05:26:47;9.33;118.99
75296;DHT22;64623;44.738;37.804;2023-06-10T05:27:51;9.19;118.99
75296;DHT22;64623;44.738;37.804;2023-06-10T05:28:54;9.22;118.99
75296;DHT22;64623;44.738;37.804;2023-06-10T05:29:58;9.06;118.99
75296;DHT22;64623;44.738;37.804;2023-06-10T05:31:01;8.80;118.99
75296;DHT22;64623;44.738;37.804;2023-06-10T05:32:04;8.94;118.99
75296;DHT22;64623;44.738;37.804;2023-06-10T05:33:08;9.01;118.99
75296;DHT22;64623;44.738;37.804;2023-06-10T05:34:11;9.02;118.99
75296;DHT22;64623;44.738;37.804;2023-06-10T05:35:17;9.08;118.99
75296;DHT22;64623;44.738;37.804;2023-06-10T05:36:20;8.82;118.99
75296;DHT22;64623;44.738;37.804;2023-06-10T05:37:24;8.76;118.99
75296;DHT22;64623;44.738;37.804;2023-06-10T05:38:27;8.79;118.99
75296;DHT22;64623;44.738;37.804;2023-06-10T05:39:30;8.95;118.99
75296;DHT22;64623;44.738;37.804;2023-06-10T05:40:33;9.15;118.99
75296;DHT22;64623;44.738;37.804;2023-06-10T05:41:36;9.12;118.99
75296;DHT22;64623;44.738;37.804;2023-06-10T05:42:39;8.96;118.99
75296;DHT22;64623;44.738;37.804;2023-06-10T05:43:43;8.97;118.99
75296;DHT22;64623;44.738;37.804;2023-06-10T05:44:46;9.08;118.99
75296;DHT22;64623;44.738;37.804;2023-06-10T05:45:49;9.03;118.99
75296;DHT22;64623;44.738;37.804;2023-06-10T05:46:52;8.83;118.99
75296;DHT22;64623;44.738;37.804;2023-06-10T05:47:55;8.86;118.99
75296;DHT22;64623;44.738;37.804;2023-06-10T05:48:59;8.81;118.99
75296;DHT22;64623;44.738;37.804;2023-06-10T05:50:02;8.72;118.99
75296;DHT22;64623;44.738;37.804;2023-06-10T05:51:09;8.97;118.99
75296;DHT22;64623;44.738;37.804;2023-06-10T05:52:13;9.07;118.99
75296;DHT22;64623;44.738;37.804;2023-06-10T05:53:16;9.11;118.99
75296;DHT22;64623;44.738;37.804;2023-06-10T05:54:20;9.12;118.99
75296;DHT22;64623;44.738;37.804;2023-06-10T05:55:24;9.09;118.99
75296;DHT22;64623;44.738;37.804;2023-06-10T05:56:27;9.21;118.99
75296;DHT22;64623;44.738;37.804;2023-06-10T05:57:30;9.08;118.99
75296;DHT22;64623;44.738;37.804;2023-06-10T05:58:34;8.78;118.99
75296;DHT22;64623;44.738;37.804;2023-06-10T05:59:37;8.81;118.99
75296;DHT22;64623;44.738;37.804;2023-06-10T06:00:41;8.71;118.99
75296;DHT22;64623;44.738;37.804;2023-06-10T06:01:44;8.74;118.99
75296;DHT22;64623;44.738;37.804;2023-06-10T06:02:48;8.91;118.99
75296;DHT22;64623;44.738;37.804;2023-06-10T06:03:51;8.86;118.99
75296;DHT22;64623;44.738;37.804;2023-06-10T06:04:54;8.63;118.99
75296;DHT22;64623;44.738;37.804;2023-06-10T06:05:57;8.61;118.99
75296;DHT22;64623;44.738;37.804;2023-06-10T06:07:00;8.60;118.99
75296;DHT22;64623;44.738;37.804;2023-06-10T06:08:10;8.46;118.99
75296;DHT22;64623;44.738;37.804;2023-06-10T06:09:13;8.50;118.99
75296;DHT22;64623;44.738;37.804;2023-06-10T06:10:17;8.55;118.99
75296;DHT22;64623;44.738;37.804;2023-06-10T06:11:21;8.53;118.99
75296;DHT22;64623;44.738;37.804;2023-06-10T06:12:24;8.46;118.99
75296;DHT22;64623;44.738;37.804;2023-06-10T06:13:27;8.30;118.99
75296;DHT22;64623;44.738;37.804;2023-06-10T06:14:31;8.21;118.99
75296;DHT22;64623;44.738;37.804;2023-06-10T06:15:35;8.32;118.99
75296;DHT22;64623;44.738;37.804;2023-06-10T06:16:38;8.29;118.99
75296;DHT22;64623;44.738;37.804;2023-06-10T06:17:41;8.35;118.99
75296;DHT22;64623;44.738;37.804;2023-06-10T06:18:44;8.47;118.99
75296;DHT22;64623;44.738;37.804;2023-06-10T06:19:47;8.38;118.99
75296;DHT22;64623;44.738;37.804;2023-06-10T06:20:50;8.49;118.99
75296;DHT22;64623;44.738;37.804;2023-06-10T06:21:54;8.51;118.99
75296;DHT22;64623;44.738;37.804;2023-06-10T06:22:57;8.66;118.99
75296;DHT22;64623;44.738;37.804;2023-06-10T06:24:03;8.66;118.99
75296;DHT22;64623;44.738;37.804;2023-06-10T06:25:07;8.85;118.99
75296;DHT22;64623;44.738;37.804;2023-06-10T06:26:10;8.52;118.99
75296;DHT22;64623;44.738;37.804;2023-06-10T06:27:13;8.56;118.99
75296;DHT22;64623;44.738;37.804;2023-06-10T06:28:16;8.58;118.99
75296;DHT22;64623;44.738;37.804;2023-06-10T06:29:21;8.57;118.99
75296;DHT22;64623;44.738;37.804;2023-06-10T06:30:24;8.67;118.99
75296;DHT22;64623;44.738;37.804;2023-06-10T06:31:28;8.80;118.99
75296;DHT22;64623;44.738;37.804;2023-06-10T06:32:31;8.86;118.99
75296;DHT22;64623;44.738;37.804;2023-06-10T06:33:34;9.06;118.99
75296;DHT22;64623;44.738;37.804;2023-06-10T06:34:37;9.00;118.99
75296;DHT22;64623;44.738;37.804;2023-06-10T06:35:40;9.04;118.99
75296;DHT22;64623;44.738;37.804;2023-06-10T06:36:43;9.16;118.99
75296;DHT22;64623;44.738;37.804;2023-06-10T06:37:46;9.19;118.99
75296;DHT22;64623;44.738;37.804;2023-06-10T06:38:54;9.01;118.99
75296;DHT22;64623;44.738;37.804;2023-06-10T06:39:58;8.88;118.99
75296;DHT22;64623;44.738;37.804;2023-06-10T06:41:07;8.90;118.99
75296;DHT22;64623;44.738;37.804;2023-06-10T06:42:10;8.93;118.99
75296;DHT22;64623;44.738;37.804;2023-06-10T06:43:36;8.91;118.99
75296;DHT22;64623;44.738;37.804;2023-06-10T06:44:58;8.87;118.99
75296;DHT22;64623;44.738;37.804;2023-06-10T06:46:02;8.76;118.99